Terminal Aerodrome Forecast
Issued by NWS

Home | Current Version | Previous Version | Text Only | Print | Product List | Glossary On
Versions: 1 2 3 4 5 6 7 8 9 10 11 12 13 14 15 16 17 18 19
000
FTUS46 KSEW 200500
TAFHQM
TAF
KHQM 200520Z 2006/2106 23012G20KT P6SM -SHRA BKN030 BKN045
     FM200900 21006KT P6SM BKN035 BKN060
     FM201200 10005KT P6SM SCT035 BKN060
     FM202100 19010KT P6SM FEW040 BKN060 BKN120
     FM210000 18010KT P6SM SCT060 OVC120=

USA.gov is the U.S. government's official web portal to all federal, state and local government web resources and services.